Latest Coastal Weather Observations for Legendre Island

IDW60701

Issued at 1:45 pm WST Thursday 18 September 2014 (issued every 10 minutes, with the page automatically refreshed every 10 minutes)

About coastal observations | Map of coastal stations | Coastal observations for WA | Marine services | Other Formats
Station Details ID: 004095 Name: LEGENDRE ISLAND Lat: -20.36 Lon: 116.84 Height: 29.0 m
Data from the previous 72 hours. | See also: Recent months for locations in Western Australia
Date/Time
WST
Temp

°C
Wind Pressure Rain
since 9am
mm
Weather Cloud Vis
km
Sea
Height
m
Swell
Dir
 
Speed
knots
Gust
knots
hPa Trend Height
m
Period
s
Dir
18/01:30pm 27.4 WSW 13 15 1014.3 - - - - - - - - -
18/01:00pm 27.2 WSW 11 13 1014.9 - - - - - - - - -
18/12:30pm 27.1 WSW 10 12 1015.4 - - - - - - - - -
18/12:00pm 27.0 WSW 11 13 1015.7 - - - - - - - - -
18/11:30am 27.3 W 9 11 1016.3 - - - - - - - - -
18/11:00am 26.1 W 9 11 1016.7 - - - - - - - - -
18/10:30am 26.0 W 9 11 1016.8 - - - - - - - - -
18/10:00am 25.7 W 8 10 1017.1 - - - - - - - - -
18/09:30am 25.6 W 7 9 1017.2 - - - - - - - - -
18/09:00am 24.8 W 5 9 1017.3 - - - - - - - - -
18/08:30am 24.5 W 5 7 1017.1 - - - - - - - - -
18/08:00am 23.8 WSW 7 9 1016.4 - - - - - - - - -
18/07:30am 23.1 WSW 9 12 1016.3 - - - - - - - - -
18/07:00am 22.3 W 3 6 1016.0 - - - - - - - - -
18/06:30am 21.5 SSW 11 16 1015.2 - - - - - - - - -
18/06:00am 21.7 SW 10 14 1015.2 - - - - - - - - -
18/05:30am 21.1 SSW 7 12 1014.8 - - - - - - - - -
18/05:00am 21.8 SW 16 17 1014.3 - - - - - - - - -
18/04:30am 22.0 SW 9 12 1014.5 - - - - - - - - -
18/04:00am 22.1 SSW 15 18 1014.0 - - - - - - - - -
18/03:30am 21.9 SW 15 16 1014.2 - - - - - - - - -
18/03:00am 22.1 SW 17 20 1014.0 - - - - - - - - -
18/02:30am 22.1 SW 16 20 1014.1 - - - - - - - - -
18/02:00am 22.1 SW 15 18 1014.2 - - - - - - - - -
18/01:30am 22.3 SW 14 18 1014.2 - - - - - - - - -
18/01:00am 22.2 SW 15 19 1014.4 - - - - - - - - -
18/12:30am 22.3 SW 16 19 1014.7 - - - - - - - - -
18/12:00am 22.4 SW 18 21 1015.0 - - - - - - - - -
 
Date/Time
WST
Temp

°C
Wind Pressure Rain
since 9am
mm
Weather Cloud Vis
km
Sea
Height
m
Swell
Dir
 
Speed
knots
Gust
knots
hPa Trend Height
m
Period
s
Dir
17/11:30pm 22.5 SW 17 20 1015.0 - - - - - - - - -
17/11:00pm 22.6 SW 17 21 1015.2 - - - - - - - - -
17/10:30pm 22.6 SW 14 18 1015.4 - - - - - - - - -
17/10:00pm 22.7 WSW 16 19 1015.6 - - - - - - - - -
17/09:30pm 22.7 WSW 17 20 1015.4 - - - - - - - - -
17/09:00pm 22.7 WSW 15 18 1015.2 - - - - - - - - -
17/08:30pm 22.7 WSW 13 16 1015.1 - - - - - - - - -
17/08:00pm 22.8 WSW 13 17 1014.8 - - - - - - - - -
17/07:30pm 23.1 WSW 13 15 1014.2 - - - - - - - - -
17/07:00pm 23.4 WSW 13 16 1013.6 - - - - - - - - -
17/06:30pm 23.4 WSW 13 15 1013.4 - - - - - - - - -
17/06:00pm 23.8 WSW 14 17 1013.0 - - - - - - - - -
17/05:30pm 24.7 WSW 13 16 1012.9 - - - - - - - - -
17/05:00pm 25.3 WSW 13 16 1012.6 - - - - - - - - -
17/04:30pm 26.1 WSW 14 16 1012.5 - - - - - - - - -
17/04:00pm 26.1 W 14 16 1012.6 - - - - - - - - -
17/03:30pm 26.2 W 13 15 1012.4 - - - - - - - - -
17/03:00pm 26.5 W 12 15 1012.6 - - - - - - - - -
17/02:30pm 27.2 W 13 16 1012.6 - - - - - - - - -
17/02:00pm 27.5 W 12 15 1012.7 - - - - - - - - -
17/01:30pm 27.1 WSW 12 15 1012.9 - - - - - - - - -
17/01:00pm 27.3 WSW 11 14 1013.4 - - - - - - - - -
17/12:30pm 26.4 WSW 13 16 1013.4 - - - - - - - - -
17/12:00pm 26.8 WSW 13 16 1013.7 - - - - - - - - -
17/11:30am 27.1 WSW 15 18 1013.9 - - - - - - - - -
17/11:00am 26.7 SW 16 19 1014.2 - - - - - - - - -
17/10:30am 26.5 SW 16 19 1014.4 - - - - - - - - -
17/10:00am 25.4 SW 17 19 1014.5 - - - - - - - - -
17/09:30am 25.4 SW 17 21 1014.4 - - - - - - - - -
17/09:00am 24.6 SW 17 20 1014.2 - - - - - - - - -
17/08:30am 24.3 SW 16 19 1014.0 - - - - - - - - -
17/08:00am 23.3 SW 15 18 1013.8 - - - - - - - - -
17/07:30am 22.7 SW 17 20 1013.6 - - - - - - - - -
17/07:00am 22.1 SW 16 19 1013.3 - - - - - - - - -
17/06:30am 21.6 SW 19 21 1012.7 - - - - - - - - -
17/06:00am 21.4 WSW 18 20 1012.4 - - - - - - - - -
17/05:30am 21.5 SW 17 21 1012.2 - - - - - - - - -
17/05:00am 21.6 SW 17 20 1011.9 - - - - - - - - -
17/04:30am 21.8 SW 17 20 1011.6 - - - - - - - - -
17/04:00am 21.8 SW 17 21 1011.6 - - - - - - - - -
17/03:30am 21.8 SW 16 20 1011.8 - - - - - - - - -
17/03:00am 21.9 SW 17 20 1011.6 - - - - - - - - -
17/02:30am 22.0 SW 14 18 1011.7 - - - - - - - - -
17/02:00am 22.2 SW 16 19 1011.8 - - - - - - - - -
17/01:30am 22.3 SW 17 20 1011.8 - - - - - - - - -
17/01:00am 22.3 SW 13 17 1012.2 - - - - - - - - -
17/12:30am 22.4 SW 14 18 1012.5 - - - - - - - - -
17/12:00am 22.6 SW 16 19 1012.5 - - - - - - - - -
 
Date/Time
WST
Temp

°C
Wind Pressure Rain
since 9am
mm
Weather Cloud Vis
km
Sea
Height
m
Swell
Dir
 
Speed
knots
Gust
knots
hPa Trend Height
m
Period
s
Dir
16/11:30pm 22.7 SW 16 18 1012.5 - - - - - - - - -
16/11:00pm 22.9 SW 16 19 1012.5 - - - - - - - - -
16/10:30pm 23.2 SW 15 18 1012.6 - - - - - - - - -
16/10:00pm 23.3 WSW 18 21 1012.3 - - - - - - - - -
16/09:30pm 23.3 SW 15 17 1012.5 - - - - - - - - -
16/09:00pm 23.3 SW 15 18 1012.4 - - - - - - - - -
16/08:30pm 23.3 WSW 15 18 1012.3 - - - - - - - - -
16/08:00pm 23.4 WSW 13 16 1012.1 - - - - - - - - -
16/07:30pm 23.3 WSW 12 14 1011.8 - - - - - - - - -
16/07:00pm 23.4 WSW 13 16 1011.3 - - - - - - - - -
16/06:30pm 23.4 WSW 13 15 1011.1 - - - - - - - - -
16/06:00pm 23.8 W 11 14 1011.0 - - - - - - - - -
16/05:30pm 24.8 W 12 16 1010.7 - - - - - - - - -
16/05:00pm 25.6 W 13 16 1010.5 - - - - - - - - -
16/04:30pm 26.1 W 14 17 1010.5 - - - - - - - - -
16/04:00pm 26.6 W 15 19 1010.3 - - - - - - - - -
16/03:30pm 26.7 W 15 18 1010.2 - - - - - - - - -
16/03:00pm 27.6 W 15 18 1010.1 - - - - - - - - -
16/02:30pm 28.1 W 15 18 1010.4 - - - - - - - - -
16/02:00pm 27.8 W 15 18 1010.6 - - - - - - - - -
16/01:30pm 27.9 W 14 17 1010.9 - - - - - - - - -
16/01:00pm 27.7 W 13 15 1011.2 - - - - - - - - -
16/12:30pm 27.5 W 13 16 1011.4 - - - - - - - - -
16/12:00pm 27.7 WSW 12 14 1011.9 - - - - - - - - -
16/11:30am 27.2 WSW 11 14 1012.3 - - - - - - - - -
16/11:00am 27.5 WSW 11 13 1012.6 - - - - - - - - -
16/10:30am 27.3 WSW 13 15 1012.6 - - - - - - - - -
16/10:00am 26.7 SW 14 16 1012.7 - - - - - - - - -
16/09:30am 26.6 SW 12 14 1012.8 - - - - - - - - -
16/09:00am 26.2 SW 12 15 1012.9 - - - - - - - - -
16/08:30am 25.2 SW 11 14 1012.9 - - - - - - - - -
16/08:00am 25.0 SW 11 13 1012.7 - - - - - - - - -
16/07:30am 24.2 SW 11 14 1012.6 - - - - - - - - -
16/07:00am 23.4 SW 12 14 1012.3 - - - - - - - - -
16/06:30am 22.5 SW 11 13 1012.0 - - - - - - - - -
16/06:00am 22.5 SW 11 14 1011.6 - - - - - - - - -
16/05:30am 22.4 SW 11 12 1011.5 - - - - - - - - -
16/05:00am 22.6 SSW 10 12 1011.4 - - - - - - - - -
16/04:30am 22.9 SSW 10 13 1011.2 - - - - - - - - -
16/04:00am 23.5 SW 14 17 1010.7 - - - - - - - - -
16/03:30am 23.8 SW 15 19 1010.6 - - - - - - - - -
16/03:00am 24.0 SW 15 17 1010.6 - - - - - - - - -
16/02:30am 24.1 SW 15 18 1010.7 - - - - - - - - -
16/02:00am 24.1 SW 16 19 1010.9 - - - - - - - - -
16/01:30am 24.0 SW 15 18 1011.1 - - - - - - - - -
16/01:00am 24.3 SW 16 19 1011.3 - - - - - - - - -
16/12:30am 24.2 SW 15 18 1011.6 - - - - - - - - -
16/12:00am 24.2 SW 15 17 1011.8 - - - - - - - - -
 
Date/Time
WST
Temp

°C
Wind Pressure Rain
since 9am
mm
Weather Cloud Vis
km
Sea
Height
m
Swell
Dir
 
Speed
knots
Gust
knots
hPa Trend Height
m
Period
s
Dir
15/11:30pm 24.2 SW 14 16 1012.2 - - - - - - - - -
15/11:00pm 24.1 SW 12 15 1012.4 - - - - - - - - -
15/10:30pm 24.3 SW 12 15 1012.8 - - - - - - - - -
15/10:00pm 24.7 SW 14 17 1012.8 - - - - - - - - -
15/09:30pm 24.6 SW 13 16 1012.7 - - - - - - - - -
15/09:00pm 24.6 SW 12 15 1012.8 - - - - - - - - -
15/08:30pm 24.4 SSW 11 13 1012.6 - - - - - - - - -
15/08:00pm 24.8 SSW 12 16 1012.4 - - - - - - - - -
15/07:30pm 24.9 SSW 12 15 1012.1 - - - - - - - - -
15/07:00pm 24.8 SW 13 15 1011.8 - - - - - - - - -
15/06:30pm 25.5 SW 16 20 1011.5 - - - - - - - - -
15/06:00pm 25.9 SW 15 18 1011.1 - - - - - - - - -
15/05:30pm 26.4 WSW 13 16 1010.9 - - - - - - - - -
15/05:00pm 26.8 WSW 11 14 1010.7 - - - - - - - - -
15/04:30pm 27.4 WSW 10 13 1010.6 - - - - - - - - -
15/04:00pm 27.5 WSW 12 15 1010.5 - - - - - - - - -
15/03:30pm 29.2 WSW 11 13 1010.6 - - - - - - - - -
15/03:00pm 29.2 WSW 12 16 1010.8 - - - - - - - - -
15/02:30pm 28.4 WSW 13 16 1010.9 - - - - - - - - -
15/02:00pm 28.6 WSW 13 16 1010.9 - - - - - - - - -

Other Formats:

Comma delimited format used in spreadsheet applications
http://www.bom.gov.au/fwo/IDW60701/IDW60701.94307.axf

JavaScript Object Notation format (JSON) in row-major order
http://www.bom.gov.au/fwo/IDW60701/IDW60701.94307.json